sensor_id;sensor_type;location;lat;lon;timestamp;P1;durP1;ratioP1;P2;durP2;ratioP2
286;SDS011;127;48.770;9.212;2024-03-02T00:00:15;29.60;;;16.10;;
286;SDS011;127;48.770;9.212;2024-03-02T00:02:46;31.63;;;15.93;;
286;SDS011;127;48.770;9.212;2024-03-02T00:05:16;32.80;;;15.60;;
286;SDS011;127;48.770;9.212;2024-03-02T00:07:52;33.13;;;15.27;;
286;SDS011;127;48.770;9.212;2024-03-02T00:10:22;35.60;;;15.50;;
286;SDS011;127;48.770;9.212;2024-03-02T00:12:54;31.87;;;16.03;;
286;SDS011;127;48.770;9.212;2024-03-02T00:15:30;34.93;;;16.87;;
286;SDS011;127;48.770;9.212;2024-03-02T00:18:05;38.50;;;17.43;;
286;SDS011;127;48.770;9.212;2024-03-02T00:20:34;31.00;;;14.83;;
286;SDS011;127;48.770;9.212;2024-03-02T00:23:06;27.97;;;15.00;;
286;SDS011;127;48.770;9.212;2024-03-02T00:25:39;36.40;;;15.20;;
286;SDS011;127;48.770;9.212;2024-03-02T00:28:13;32.10;;;15.27;;
286;SDS011;127;48.770;9.212;2024-03-02T00:30:51;25.00;;;13.43;;
286;SDS011;127;48.770;9.212;2024-03-02T00:33:20;26.50;;;14.27;;
286;SDS011;127;48.770;9.212;2024-03-02T00:35:50;31.60;;;14.83;;
286;SDS011;127;48.770;9.212;2024-03-02T00:38:21;28.73;;;15.10;;
286;SDS011;127;48.770;9.212;2024-03-02T00:40:50;31.63;;;14.43;;
286;SDS011;127;48.770;9.212;2024-03-02T00:46:04;29.38;;;15.00;;
286;SDS011;127;48.770;9.212;2024-03-02T00:48:33;28.02;;;15.40;;
286;SDS011;127;48.770;9.212;2024-03-02T00:51:03;30.13;;;14.73;;
286;SDS011;127;48.770;9.212;2024-03-02T00:53:34;27.50;;;15.10;;
286;SDS011;127;48.770;9.212;2024-03-02T00:56:03;32.27;;;15.37;;
286;SDS011;127;48.770;9.212;2024-03-02T00:58:35;32.22;;;15.23;;
286;SDS011;127;48.770;9.212;2024-03-02T01:01:04;24.90;;;13.77;;
286;SDS011;127;48.770;9.212;2024-03-02T01:03:34;24.20;;;13.57;;
286;SDS011;127;48.770;9.212;2024-03-02T01:06:04;26.37;;;12.90;;
286;SDS011;127;48.770;9.212;2024-03-02T01:08:35;27.87;;;13.50;;
286;SDS011;127;48.770;9.212;2024-03-02T01:11:04;27.03;;;15.10;;
286;SDS011;127;48.770;9.212;2024-03-02T01:13:33;28.73;;;14.40;;
286;SDS011;127;48.770;9.212;2024-03-02T01:16:03;28.33;;;13.43;;
286;SDS011;127;48.770;9.212;2024-03-02T01:18:32;29.20;;;14.20;;
286;SDS011;127;48.770;9.212;2024-03-02T01:21:01;33.03;;;13.60;;
286;SDS011;127;48.770;9.212;2024-03-02T01:23:29;31.80;;;14.50;;
286;SDS011;127;48.770;9.212;2024-03-02T01:26:01;27.40;;;12.97;;
286;SDS011;127;48.770;9.212;2024-03-02T01:28:30;35.47;;;15.90;;
286;SDS011;127;48.770;9.212;2024-03-02T01:30:59;35.60;;;17.25;;
286;SDS011;127;48.770;9.212;2024-03-02T01:33:28;29.63;;;14.37;;
286;SDS011;127;48.770;9.212;2024-03-02T01:35:57;30.00;;;13.97;;
286;SDS011;127;48.770;9.212;2024-03-02T01:38:26;31.20;;;16.20;;
286;SDS011;127;48.770;9.212;2024-03-02T01:40:56;34.30;;;14.77;;
286;SDS011;127;48.770;9.212;2024-03-02T01:43:27;26.57;;;13.73;;
286;SDS011;127;48.770;9.212;2024-03-02T01:45:56;30.10;;;14.83;;
286;SDS011;127;48.770;9.212;2024-03-02T01:48:25;27.23;;;14.27;;
286;SDS011;127;48.770;9.212;2024-03-02T01:50:54;29.30;;;14.35;;
286;SDS011;127;48.770;9.212;2024-03-02T01:53:23;28.00;;;14.50;;
286;SDS011;127;48.770;9.212;2024-03-02T01:55:53;34.13;;;15.65;;
286;SDS011;127;48.770;9.212;2024-03-02T01:58:22;35.03;;;15.32;;
286;SDS011;127;48.770;9.212;2024-03-02T02:00:53;36.63;;;16.03;;
286;SDS011;127;48.770;9.212;2024-03-02T02:03:22;30.65;;;13.75;;
286;SDS011;127;48.770;9.212;2024-03-02T02:05:51;29.67;;;14.93;;
286;SDS011;127;48.770;9.212;2024-03-02T02:08:20;31.45;;;15.32;;
286;SDS011;127;48.770;9.212;2024-03-02T02:10:49;37.35;;;17.20;;
286;SDS011;127;48.770;9.212;2024-03-02T02:13:18;38.35;;;16.55;;
286;SDS011;127;48.770;9.212;2024-03-02T02:15:47;36.00;;;16.38;;
286;SDS011;127;48.770;9.212;2024-03-02T02:18:18;42.45;;;17.30;;
286;SDS011;127;48.770;9.212;2024-03-02T02:20:47;38.03;;;15.85;;
286;SDS011;127;48.770;9.212;2024-03-02T02:23:18;48.20;;;18.98;;
286;SDS011;127;48.770;9.212;2024-03-02T02:25:47;44.05;;;18.95;;
286;SDS011;127;48.770;9.212;2024-03-02T02:28:16;44.10;;;19.45;;
286;SDS011;127;48.770;9.212;2024-03-02T02:30:45;47.70;;;18.55;;
286;SDS011;127;48.770;9.212;2024-03-02T02:33:14;51.83;;;20.33;;
286;SDS011;127;48.770;9.212;2024-03-02T02:35:43;46.28;;;17.75;;
286;SDS011;127;48.770;9.212;2024-03-02T02:38:12;47.75;;;20.42;;
286;SDS011;127;48.770;9.212;2024-03-02T02:40:44;39.35;;;17.67;;
286;SDS011;127;48.770;9.212;2024-03-02T02:43:13;49.60;;;20.17;;
286;SDS011;127;48.770;9.212;2024-03-02T02:45:41;52.90;;;20.85;;
286;SDS011;127;48.770;9.212;2024-03-02T02:48:10;45.15;;;21.25;;
286;SDS011;127;48.770;9.212;2024-03-02T02:50:39;56.42;;;21.23;;
286;SDS011;127;48.770;9.212;2024-03-02T02:53:08;60.45;;;21.92;;
286;SDS011;127;48.770;9.212;2024-03-02T02:55:37;61.75;;;22.25;;
286;SDS011;127;48.770;9.212;2024-03-02T02:58:11;54.80;;;21.45;;
286;SDS011;127;48.770;9.212;2024-03-02T03:00:40;57.30;;;21.92;;
286;SDS011;127;48.770;9.212;2024-03-02T03:03:08;61.63;;;22.58;;
286;SDS011;127;48.770;9.212;2024-03-02T03:05:37;59.83;;;22.30;;
286;SDS011;127;48.770;9.212;2024-03-02T03:08:06;59.08;;;22.20;;
286;SDS011;127;48.770;9.212;2024-03-02T03:10:35;58.58;;;21.98;;
286;SDS011;127;48.770;9.212;2024-03-02T03:13:05;60.60;;;21.90;;
286;SDS011;127;48.770;9.212;2024-03-02T03:15:38;57.90;;;21.67;;
286;SDS011;127;48.770;9.212;2024-03-02T03:18:07;63.20;;;21.75;;
286;SDS011;127;48.770;9.212;2024-03-02T03:20:36;78.50;;;25.52;;
286;SDS011;127;48.770;9.212;2024-03-02T03:23:05;75.18;;;25.55;;
286;SDS011;127;48.770;9.212;2024-03-02T03:25:34;71.97;;;23.38;;
286;SDS011;127;48.770;9.212;2024-03-02T03:28:03;65.90;;;23.52;;
286;SDS011;127;48.770;9.212;2024-03-02T03:30:32;61.45;;;22.88;;
286;SDS011;127;48.770;9.212;2024-03-02T03:33:03;66.60;;;22.20;;
286;SDS011;127;48.770;9.212;2024-03-02T03:35:33;64.60;;;21.55;;
286;SDS011;127;48.770;9.212;2024-03-02T03:38:02;67.85;;;22.95;;
286;SDS011;127;48.770;9.212;2024-03-02T03:40:31;63.05;;;23.65;;
286;SDS011;127;48.770;9.212;2024-03-02T03:43:00;66.93;;;24.45;;
286;SDS011;127;48.770;9.212;2024-03-02T03:45:29;66.50;;;22.80;;
286;SDS011;127;48.770;9.212;2024-03-02T03:47:58;58.38;;;22.77;;
286;SDS011;127;48.770;9.212;2024-03-02T03:50:29;65.85;;;22.08;;
286;SDS011;127;48.770;9.212;2024-03-02T03:52:58;67.97;;;25.35;;
286;SDS011;127;48.770;9.212;2024-03-02T03:55:27;72.38;;;22.48;;
286;SDS011;127;48.770;9.212;2024-03-02T03:57:55;65.95;;;23.95;;
286;SDS011;127;48.770;9.212;2024-03-02T04:00:25;66.30;;;24.60;;
286;SDS011;127;48.770;9.212;2024-03-02T04:02:53;70.53;;;24.38;;
286;SDS011;127;48.770;9.212;2024-03-02T04:05:22;68.70;;;24.13;;
286;SDS011;127;48.770;9.212;2024-03-02T04:07:54;71.13;;;21.80;;
286;SDS011;127;48.770;9.212;2024-03-02T04:10:23;64.32;;;22.00;;
286;SDS011;127;48.770;9.212;2024-03-02T04:12:52;63.28;;;22.15;;
286;SDS011;127;48.770;9.212;2024-03-02T04:15:21;77.32;;;22.88;;
286;SDS011;127;48.770;9.212;2024-03-02T04:17:50;69.75;;;22.98;;
286;SDS011;127;48.770;9.212;2024-03-02T04:20:20;79.40;;;24.95;;
286;SDS011;127;48.770;9.212;2024-03-02T04:22:49;75.32;;;22.52;;
286;SDS011;127;48.770;9.212;2024-03-02T04:25:20;66.00;;;22.70;;
286;SDS011;127;48.770;9.212;2024-03-02T04:27:49;76.80;;;24.67;;
286;SDS011;127;48.770;9.212;2024-03-02T04:30:18;59.75;;;20.92;;
286;SDS011;127;48.770;9.212;2024-03-02T04:32:47;79.82;;;23.27;;
286;SDS011;127;48.770;9.212;2024-03-02T04:35:16;68.32;;;24.00;;
286;SDS011;127;48.770;9.212;2024-03-02T04:37:46;64.88;;;23.85;;
286;SDS011;127;48.770;9.212;2024-03-02T04:40:15;77.20;;;24.45;;
286;SDS011;127;48.770;9.212;2024-03-02T04:42:46;73.35;;;22.95;;
286;SDS011;127;48.770;9.212;2024-03-02T04:45:15;74.68;;;23.83;;
286;SDS011;127;48.770;9.212;2024-03-02T04:47:44;73.70;;;23.42;;
286;SDS011;127;48.770;9.212;2024-03-02T04:50:13;71.32;;;24.35;;
286;SDS011;127;48.770;9.212;2024-03-02T04:52:42;68.28;;;22.15;;
286;SDS011;127;48.770;9.212;2024-03-02T04:55:11;70.65;;;23.85;;
286;SDS011;127;48.770;9.212;2024-03-02T04:58:10;57.80;;;22.35;;
286;SDS011;127;48.770;9.212;2024-03-02T05:00:39;60.30;;;23.35;;
286;SDS011;127;48.770;9.212;2024-03-02T05:03:07;69.00;;;22.80;;
286;SDS011;127;48.770;9.212;2024-03-02T05:05:36;68.82;;;24.77;;
286;SDS011;127;48.770;9.212;2024-03-02T05:08:05;69.53;;;24.70;;
286;SDS011;127;48.770;9.212;2024-03-02T05:10:37;66.47;;;24.08;;
286;SDS011;127;48.770;9.212;2024-03-02T05:13:06;74.20;;;23.80;;
286;SDS011;127;48.770;9.212;2024-03-02T05:15:35;67.00;;;23.50;;
286;SDS011;127;48.770;9.212;2024-03-02T05:18:04;72.43;;;22.80;;
286;SDS011;127;48.770;9.212;2024-03-02T05:20:33;65.95;;;22.65;;
286;SDS011;127;48.770;9.212;2024-03-02T05:23:02;77.10;;;23.42;;
286;SDS011;127;48.770;9.212;2024-03-02T05:25:30;82.13;;;24.73;;
286;SDS011;127;48.770;9.212;2024-03-02T05:28:00;79.30;;;25.35;;
286;SDS011;127;48.770;9.212;2024-03-02T05:30:29;74.18;;;24.88;;
286;SDS011;127;48.770;9.212;2024-03-02T05:33:00;87.47;;;27.00;;
286;SDS011;127;48.770;9.212;2024-03-02T05:35:29;81.03;;;25.70;;
286;SDS011;127;48.770;9.212;2024-03-02T05:37:58;87.25;;;26.75;;
286;SDS011;127;48.770;9.212;2024-03-02T05:40:27;86.70;;;25.17;;
286;SDS011;127;48.770;9.212;2024-03-02T05:42:56;85.68;;;25.67;;
286;SDS011;127;48.770;9.212;2024-03-02T05:45:25;81.88;;;24.73;;
286;SDS011;127;48.770;9.212;2024-03-02T05:47:53;78.93;;;25.08;;
286;SDS011;127;48.770;9.212;2024-03-02T05:50:25;79.07;;;26.67;;
286;SDS011;127;48.770;9.212;2024-03-02T05:52:54;88.25;;;30.35;;
286;SDS011;127;48.770;9.212;2024-03-02T05:55:24;89.00;;;28.88;;
286;SDS011;127;48.770;9.212;2024-03-02T05:57:52;84.32;;;29.75;;
286;SDS011;127;48.770;9.212;2024-03-02T06:00:36;90.28;;;30.42;;
286;SDS011;127;48.770;9.212;2024-03-02T06:03:05;86.95;;;28.70;;
286;SDS011;127;48.770;9.212;2024-03-02T06:05:37;103.85;;;33.55;;
286;SDS011;127;48.770;9.212;2024-03-02T06:08:06;97.75;;;29.30;;
286;SDS011;127;48.770;9.212;2024-03-02T06:10:35;96.80;;;29.05;;
286;SDS011;127;48.770;9.212;2024-03-02T06:13:05;91.97;;;29.08;;
286;SDS011;127;48.770;9.212;2024-03-02T06:15:34;79.57;;;25.50;;
286;SDS011;127;48.770;9.212;2024-03-02T06:18:03;85.53;;;25.88;;
286;SDS011;127;48.770;9.212;2024-03-02T06:20:33;75.18;;;24.50;;
286;SDS011;127;48.770;9.212;2024-03-02T06:23:04;68.20;;;23.10;;
286;SDS011;127;48.770;9.212;2024-03-02T06:25:33;85.43;;;29.42;;
286;SDS011;127;48.770;9.212;2024-03-02T06:28:02;88.75;;;29.33;;
286;SDS011;127;48.770;9.212;2024-03-02T06:30:32;97.57;;;30.60;;
286;SDS011;127;48.770;9.212;2024-03-02T06:33:01;88.65;;;30.35;;
286;SDS011;127;48.770;9.212;2024-03-02T06:35:31;77.97;;;27.67;;
286;SDS011;127;48.770;9.212;2024-03-02T06:38:00;81.75;;;29.30;;
286;SDS011;127;48.770;9.212;2024-03-02T06:40:31;79.22;;;26.40;;
286;SDS011;127;48.770;9.212;2024-03-02T06:43:02;64.13;;;24.95;;
286;SDS011;127;48.770;9.212;2024-03-02T06:45:31;77.93;;;23.88;;
286;SDS011;127;48.770;9.212;2024-03-02T06:48:00;61.40;;;21.70;;
286;SDS011;127;48.770;9.212;2024-03-02T06:50:29;57.78;;;21.40;;
286;SDS011;127;48.770;9.212;2024-03-02T06:52:58;56.80;;;21.30;;
286;SDS011;127;48.770;9.212;2024-03-02T06:55:31;44.03;;;17.38;;
286;SDS011;127;48.770;9.212;2024-03-02T06:58:00;41.45;;;14.80;;
286;SDS011;127;48.770;9.212;2024-03-02T07:00:30;43.97;;;16.53;;
286;SDS011;127;48.770;9.212;2024-03-02T07:02:58;44.60;;;17.20;;
286;SDS011;127;48.770;9.212;2024-03-02T07:05:27;35.93;;;16.77;;
286;SDS011;127;48.770;9.212;2024-03-02T07:07:56;40.17;;;16.97;;
286;SDS011;127;48.770;9.212;2024-03-02T07:10:26;39.83;;;16.87;;
286;SDS011;127;48.770;9.212;2024-03-02T07:12:58;38.28;;;15.27;;
286;SDS011;127;48.770;9.212;2024-03-02T07:15:26;31.23;;;15.45;;
286;SDS011;127;48.770;9.212;2024-03-02T07:18:15;40.20;;;15.10;;
286;SDS011;127;48.770;9.212;2024-03-02T07:20:44;33.50;;;15.13;;
286;SDS011;127;48.770;9.212;2024-03-02T07:23:14;33.87;;;15.23;;
286;SDS011;127;48.770;9.212;2024-03-02T07:25:44;32.03;;;14.57;;
286;SDS011;127;48.770;9.212;2024-03-02T07:28:16;28.63;;;14.40;;
286;SDS011;127;48.770;9.212;2024-03-02T07:30:45;32.43;;;14.20;;
286;SDS011;127;48.770;9.212;2024-03-02T07:33:14;30.83;;;14.00;;
286;SDS011;127;48.770;9.212;2024-03-02T07:35:43;28.27;;;12.90;;
286;SDS011;127;48.770;9.212;2024-03-02T07:38:11;26.80;;;12.10;;
286;SDS011;127;48.770;9.212;2024-03-02T07:40:40;27.90;;;12.40;;
286;SDS011;127;48.770;9.212;2024-03-02T07:43:09;26.30;;;11.07;;
286;SDS011;127;48.770;9.212;2024-03-02T07:45:41;25.37;;;11.80;;
286;SDS011;127;48.770;9.212;2024-03-02T07:48:09;21.47;;;12.03;;
286;SDS011;127;48.770;9.212;2024-03-02T07:50:39;21.60;;;11.70;;
286;SDS011;127;48.770;9.212;2024-03-02T07:53:08;21.60;;;10.60;;
286;SDS011;127;48.770;9.212;2024-03-02T07:55:37;18.30;;;9.93;;
286;SDS011;127;48.770;9.212;2024-03-02T07:58:06;19.47;;;10.50;;
286;SDS011;127;48.770;9.212;2024-03-02T08:00:36;21.30;;;10.03;;
286;SDS011;127;48.770;9.212;2024-03-02T08:03:09;20.53;;;10.10;;
286;SDS011;127;48.770;9.212;2024-03-02T08:05:38;23.47;;;10.50;;
286;SDS011;127;48.770;9.212;2024-03-02T08:08:07;19.00;;;9.50;;
286;SDS011;127;48.770;9.212;2024-03-02T08:10:37;18.40;;;10.67;;
286;SDS011;127;48.770;9.212;2024-03-02T08:13:06;18.60;;;9.70;;
286;SDS011;127;48.770;9.212;2024-03-02T08:15:34;19.60;;;9.10;;
286;SDS011;127;48.770;9.212;2024-03-02T08:18:04;19.40;;;10.20;;
286;SDS011;127;48.770;9.212;2024-03-02T08:20:35;17.43;;;9.30;;
286;SDS011;127;48.770;9.212;2024-03-02T08:23:04;22.00;;;10.60;;
286;SDS011;127;48.770;9.212;2024-03-02T08:25:33;18.70;;;9.53;;
286;SDS011;127;48.770;9.212;2024-03-02T08:28:02;18.70;;;10.53;;
286;SDS011;127;48.770;9.212;2024-03-02T08:30:31;19.50;;;10.43;;
286;SDS011;127;48.770;9.212;2024-03-02T08:33:00;20.87;;;11.33;;
286;SDS011;127;48.770;9.212;2024-03-02T08:35:29;20.53;;;10.60;;
286;SDS011;127;48.770;9.212;2024-03-02T08:38:03;20.67;;;11.63;;
286;SDS011;127;48.770;9.212;2024-03-02T08:40:32;17.97;;;9.73;;
286;SDS011;127;48.770;9.212;2024-03-02T08:43:01;17.60;;;8.40;;
286;SDS011;127;48.770;9.212;2024-03-02T08:45:30;14.43;;;8.97;;
286;SDS011;127;48.770;9.212;2024-03-02T08:47:59;16.47;;;9.10;;
286;SDS011;127;48.770;9.212;2024-03-02T08:50:28;13.50;;;8.60;;
286;SDS011;127;48.770;9.212;2024-03-02T08:52:57;12.87;;;7.03;;
286;SDS011;127;48.770;9.212;2024-03-02T08:55:29;13.00;;;7.80;;
286;SDS011;127;48.770;9.212;2024-03-02T08:57:57;11.70;;;7.17;;
286;SDS011;127;48.770;9.212;2024-03-02T09:00:26;14.00;;;6.80;;
286;SDS011;127;48.770;9.212;2024-03-02T09:02:55;12.57;;;7.37;;
286;SDS011;127;48.770;9.212;2024-03-02T09:05:24;13.00;;;7.93;;
286;SDS011;127;48.770;9.212;2024-03-02T09:07:53;10.33;;;6.70;;
286;SDS011;127;48.770;9.212;2024-03-02T09:10:22;11.20;;;6.80;;
286;SDS011;127;48.770;9.212;2024-03-02T09:12:54;11.27;;;6.40;;
286;SDS011;127;48.770;9.212;2024-03-02T09:15:22;14.73;;;6.87;;
286;SDS011;127;48.770;9.212;2024-03-02T09:17:51;10.40;;;6.43;;
286;SDS011;127;48.770;9.212;2024-03-02T09:20:20;9.23;;;6.70;;
286;SDS011;127;48.770;9.212;2024-03-02T09:22:49;9.03;;;6.30;;
286;SDS011;127;48.770;9.212;2024-03-02T09:25:18;10.73;;;6.33;;
286;SDS011;127;48.770;9.212;2024-03-02T09:27:47;10.47;;;6.47;;
286;SDS011;127;48.770;9.212;2024-03-02T09:30:18;9.50;;;5.70;;
286;SDS011;127;48.770;9.212;2024-03-02T09:32:47;8.90;;;5.77;;
286;SDS011;127;48.770;9.212;2024-03-02T09:35:16;7.87;;;5.90;;
286;SDS011;127;48.770;9.212;2024-03-02T09:37:45;10.43;;;6.23;;
286;SDS011;127;48.770;9.212;2024-03-02T09:40:14;9.83;;;6.40;;
286;SDS011;127;48.770;9.212;2024-03-02T09:42:43;9.53;;;5.80;;
286;SDS011;127;48.770;9.212;2024-03-02T09:45:20;9.10;;;6.60;;
286;SDS011;127;48.770;9.212;2024-03-02T09:47:51;10.70;;;6.50;;
286;SDS011;127;48.770;9.212;2024-03-02T09:50:20;11.60;;;6.80;;
286;SDS011;127;48.770;9.212;2024-03-02T09:52:49;11.50;;;6.30;;
286;SDS011;127;48.770;9.212;2024-03-02T09:55:19;11.90;;;5.67;;
286;SDS011;127;48.770;9.212;2024-03-02T09:57:50;9.90;;;6.27;;
286;SDS011;127;48.770;9.212;2024-03-02T10:00:21;10.80;;;6.20;;
286;SDS011;127;48.770;9.212;2024-03-02T10:02:50;10.60;;;6.33;;
286;SDS011;127;48.770;9.212;2024-03-02T10:05:26;7.50;;;5.73;;
286;SDS011;127;48.770;9.212;2024-03-02T10:07:58;8.40;;;5.63;;
286;SDS011;127;48.770;9.212;2024-03-02T10:10:34;8.60;;;6.00;;
286;SDS011;127;48.770;9.212;2024-03-02T10:13:05;6.80;;;4.67;;
286;SDS011;127;48.770;9.212;2024-03-02T10:15:37;9.60;;;6.00;;
286;SDS011;127;48.770;9.212;2024-03-02T10:18:08;8.10;;;5.80;;
286;SDS011;127;48.770;9.212;2024-03-02T10:20:39;10.50;;;6.40;;
286;SDS011;127;48.770;9.212;2024-03-02T10:23:09;7.20;;;5.00;;
286;SDS011;127;48.770;9.212;2024-03-02T10:25:38;7.97;;;5.03;;
286;SDS011;127;48.770;9.212;2024-03-02T10:28:07;8.30;;;5.80;;
286;SDS011;127;48.770;9.212;2024-03-02T10:30:39;7.83;;;5.43;;
286;SDS011;127;48.770;9.212;2024-03-02T10:33:07;8.40;;;5.93;;
286;SDS011;127;48.770;9.212;2024-03-02T10:35:36;9.33;;;6.30;;
286;SDS011;127;48.770;9.212;2024-03-02T10:38:07;7.47;;;5.33;;
286;SDS011;127;48.770;9.212;2024-03-02T10:40:35;7.63;;;5.33;;
286;SDS011;127;48.770;9.212;2024-03-02T10:43:04;9.47;;;5.27;;
286;SDS011;127;48.770;9.212;2024-03-02T10:45:34;8.50;;;5.53;;
286;SDS011;127;48.770;9.212;2024-03-02T10:48:06;7.20;;;5.37;;
286;SDS011;127;48.770;9.212;2024-03-02T10:50:35;7.33;;;5.00;;
286;SDS011;127;48.770;9.212;2024-03-02T10:53:04;7.10;;;4.80;;
286;SDS011;127;48.770;9.212;2024-03-02T10:55:32;6.43;;;5.07;;
286;SDS011;127;48.770;9.212;2024-03-02T10:58:01;8.50;;;5.43;;
286;SDS011;127;48.770;9.212;2024-03-02T11:00:33;6.07;;;4.80;;
286;SDS011;127;48.770;9.212;2024-03-02T11:03:05;7.57;;;5.33;;
286;SDS011;127;48.770;9.212;2024-03-02T11:05:36;8.13;;;4.70;;
286;SDS011;127;48.770;9.212;2024-03-02T11:08:06;5.73;;;3.97;;
286;SDS011;127;48.770;9.212;2024-03-02T11:10:35;7.13;;;4.50;;
286;SDS011;127;48.770;9.212;2024-03-02T11:13:05;6.07;;;4.27;;
286;SDS011;127;48.770;9.212;2024-03-02T11:15:35;5.50;;;3.63;;
286;SDS011;127;48.770;9.212;2024-03-02T11:18:07;7.33;;;4.33;;
286;SDS011;127;48.770;9.212;2024-03-02T11:20:36;4.77;;;3.50;;
286;SDS011;127;48.770;9.212;2024-03-02T11:23:06;6.03;;;3.90;;
286;SDS011;127;48.770;9.212;2024-03-02T11:25:36;3.73;;;3.00;;
286;SDS011;127;48.770;9.212;2024-03-02T11:28:05;4.63;;;3.60;;
286;SDS011;127;48.770;9.212;2024-03-02T11:30:50;6.00;;;3.60;;
286;SDS011;127;48.770;9.212;2024-03-02T11:33:26;3.07;;;2.93;;
286;SDS011;127;48.770;9.212;2024-03-02T11:35:57;4.23;;;3.20;;
286;SDS011;127;48.770;9.212;2024-03-02T11:38:30;2.97;;;2.87;;
286;SDS011;127;48.770;9.212;2024-03-02T11:41:00;4.10;;;2.80;;
286;SDS011;127;48.770;9.212;2024-03-02T11:43:29;4.97;;;3.07;;
286;SDS011;127;48.770;9.212;2024-03-02T11:45:59;5.30;;;2.80;;
286;SDS011;127;48.770;9.212;2024-03-02T11:48:32;2.80;;;2.20;;
286;SDS011;127;48.770;9.212;2024-03-02T11:51:01;4.43;;;2.53;;
286;SDS011;127;48.770;9.212;2024-03-02T11:53:30;2.80;;;2.47;;
286;SDS011;127;48.770;9.212;2024-03-02T11:55:59;4.77;;;2.90;;
286;SDS011;127;48.770;9.212;2024-03-02T11:58:30;6.33;;;2.50;;
286;SDS011;127;48.770;9.212;2024-03-02T12:01:00;2.83;;;2.63;;
286;SDS011;127;48.770;9.212;2024-03-02T12:03:28;6.40;;;2.83;;
286;SDS011;127;48.770;9.212;2024-03-02T12:06:00;3.57;;;2.67;;
286;SDS011;127;48.770;9.212;2024-03-02T12:08:29;7.57;;;2.50;;
286;SDS011;127;48.770;9.212;2024-03-02T12:11:00;3.83;;;2.60;;
286;SDS011;127;48.770;9.212;2024-03-02T12:13:29;2.43;;;2.07;;
286;SDS011;127;48.770;9.212;2024-03-02T12:15:58;2.27;;;2.00;;
286;SDS011;127;48.770;9.212;2024-03-02T12:18:27;5.53;;;1.90;;
286;SDS011;127;48.770;9.212;2024-03-02T12:20:56;4.43;;;2.10;;
286;SDS011;127;48.770;9.212;2024-03-02T12:23:30;3.23;;;1.97;;
286;SDS011;127;48.770;9.212;2024-03-02T12:25:59;2.10;;;1.63;;
286;SDS011;127;48.770;9.212;2024-03-02T12:28:28;1.90;;;1.77;;
286;SDS011;127;48.770;9.212;2024-03-02T12:30:57;2.30;;;1.73;;
286;SDS011;127;48.770;9.212;2024-03-02T12:33:26;3.87;;;2.00;;
286;SDS011;127;48.770;9.212;2024-03-02T12:35:56;1.90;;;1.70;;
286;SDS011;127;48.770;9.212;2024-03-02T12:38:25;2.40;;;1.83;;
286;SDS011;127;48.770;9.212;2024-03-02T12:40:57;1.97;;;1.90;;
286;SDS011;127;48.770;9.212;2024-03-02T12:43:29;3.00;;;2.33;;
286;SDS011;127;48.770;9.212;2024-03-02T12:45:58;2.90;;;2.03;;
286;SDS011;127;48.770;9.212;2024-03-02T12:48:28;3.17;;;2.00;;
286;SDS011;127;48.770;9.212;2024-03-02T12:50:57;2.60;;;2.27;;
286;SDS011;127;48.770;9.212;2024-03-02T12:53:25;4.03;;;2.40;;
286;SDS011;127;48.770;9.212;2024-03-02T12:55:57;2.70;;;1.90;;
286;SDS011;127;48.770;9.212;2024-03-02T12:58:26;5.20;;;2.00;;
286;SDS011;127;48.770;9.212;2024-03-02T13:01:05;3.40;;;2.30;;
286;SDS011;127;48.770;9.212;2024-03-02T13:03:36;1.80;;;1.70;;
286;SDS011;127;48.770;9.212;2024-03-02T13:06:05;2.40;;;1.67;;
286;SDS011;127;48.770;9.212;2024-03-02T13:08:34;1.87;;;1.53;;
286;SDS011;127;48.770;9.212;2024-03-02T13:11:06;3.27;;;1.77;;
286;SDS011;127;48.770;9.212;2024-03-02T13:13:35;1.70;;;1.60;;
286;SDS011;127;48.770;9.212;2024-03-02T13:16:04;1.73;;;1.63;;
286;SDS011;127;48.770;9.212;2024-03-02T13:18:33;1.93;;;1.83;;
286;SDS011;127;48.770;9.212;2024-03-02T13:21:02;1.90;;;1.67;;
286;SDS011;127;48.770;9.212;2024-03-02T13:23:31;2.50;;;1.97;;
286;SDS011;127;48.770;9.212;2024-03-02T13:26:00;2.47;;;1.77;;
286;SDS011;127;48.770;9.212;2024-03-02T13:28:32;1.70;;;1.60;;
286;SDS011;127;48.770;9.212;2024-03-02T13:31:01;1.93;;;1.73;;
286;SDS011;127;48.770;9.212;2024-03-02T13:33:30;1.87;;;1.80;;
286;SDS011;127;48.770;9.212;2024-03-02T13:35:58;2.63;;;2.07;;
286;SDS011;127;48.770;9.212;2024-03-02T13:38:28;2.53;;;2.23;;
286;SDS011;127;48.770;9.212;2024-03-02T13:40:56;3.67;;;2.13;;
286;SDS011;127;48.770;9.212;2024-03-02T13:43:26;2.00;;;1.80;;
286;SDS011;127;48.770;9.212;2024-03-02T13:45:59;2.53;;;2.07;;
286;SDS011;127;48.770;9.212;2024-03-02T13:48:28;5.00;;;2.30;;
286;SDS011;127;48.770;9.212;2024-03-02T13:50:57;2.60;;;2.20;;
286;SDS011;127;48.770;9.212;2024-03-02T13:53:26;3.67;;;1.97;;
286;SDS011;127;48.770;9.212;2024-03-02T13:55:55;1.83;;;1.83;;
286;SDS011;127;48.770;9.212;2024-03-02T13:58:24;2.77;;;2.20;;
286;SDS011;127;48.770;9.212;2024-03-02T14:00:52;2.47;;;2.00;;
286;SDS011;127;48.770;9.212;2024-03-02T14:03:25;1.97;;;1.87;;
286;SDS011;127;48.770;9.212;2024-03-02T14:05:54;2.13;;;1.90;;
286;SDS011;127;48.770;9.212;2024-03-02T14:08:23;2.93;;;1.80;;
286;SDS011;127;48.770;9.212;2024-03-02T14:10:52;2.60;;;2.13;;
286;SDS011;127;48.770;9.212;2024-03-02T14:13:25;2.50;;;1.97;;
286;SDS011;127;48.770;9.212;2024-03-02T14:15:54;1.87;;;1.77;;
286;SDS011;127;48.770;9.212;2024-03-02T14:18:25;2.70;;;2.20;;
286;SDS011;127;48.770;9.212;2024-03-02T14:20:54;1.87;;;1.80;;
286;SDS011;127;48.770;9.212;2024-03-02T14:23:23;3.73;;;1.90;;
286;SDS011;127;48.770;9.212;2024-03-02T14:25:54;3.40;;;2.40;;
286;SDS011;127;48.770;9.212;2024-03-02T14:28:24;2.70;;;1.93;;
286;SDS011;127;48.770;9.212;2024-03-02T14:30:53;2.60;;;2.10;;
286;SDS011;127;48.770;9.212;2024-03-02T14:33:22;5.73;;;1.83;;
286;SDS011;127;48.770;9.212;2024-03-02T14:35:53;3.63;;;1.47;;
286;SDS011;127;48.770;9.212;2024-03-02T14:38:22;1.57;;;1.40;;
286;SDS011;127;48.770;9.212;2024-03-02T14:40:51;2.57;;;1.77;;
286;SDS011;127;48.770;9.212;2024-03-02T14:43:20;1.73;;;1.63;;
286;SDS011;127;48.770;9.212;2024-03-02T14:45:49;3.03;;;1.57;;
286;SDS011;127;48.770;9.212;2024-03-02T14:48:18;1.40;;;1.30;;
286;SDS011;127;48.770;9.212;2024-03-02T14:50:47;2.60;;;2.30;;
286;SDS011;127;48.770;9.212;2024-03-02T14:53:18;2.83;;;1.60;;
286;SDS011;127;48.770;9.212;2024-03-02T14:55:48;2.13;;;1.70;;
286;SDS011;127;48.770;9.212;2024-03-02T14:58:17;1.80;;;1.70;;
286;SDS011;127;48.770;9.212;2024-03-02T15:00:46;1.50;;;1.50;;
286;SDS011;127;48.770;9.212;2024-03-02T15:03:15;2.63;;;1.63;;
286;SDS011;127;48.770;9.212;2024-03-02T15:05:44;1.77;;;1.67;;
286;SDS011;127;48.770;9.212;2024-03-02T15:08:19;2.30;;;1.80;;
286;SDS011;127;48.770;9.212;2024-03-02T15:10:48;1.93;;;1.77;;
286;SDS011;127;48.770;9.212;2024-03-02T15:13:17;3.87;;;2.43;;
286;SDS011;127;48.770;9.212;2024-03-02T15:15:46;2.90;;;2.20;;
286;SDS011;127;48.770;9.212;2024-03-02T15:18:14;4.23;;;1.63;;
286;SDS011;127;48.770;9.212;2024-03-02T15:20:43;2.80;;;1.80;;
286;SDS011;127;48.770;9.212;2024-03-02T15:23:12;2.00;;;1.40;;
286;SDS011;127;48.770;9.212;2024-03-02T15:25:44;2.60;;;1.60;;
286;SDS011;127;48.770;9.212;2024-03-02T15:28:13;2.33;;;2.20;;
286;SDS011;127;48.770;9.212;2024-03-02T15:30:41;8.10;;;1.80;;
286;SDS011;127;48.770;9.212;2024-03-02T15:33:10;1.83;;;1.80;;
286;SDS011;127;48.770;9.212;2024-03-02T15:35:39;1.90;;;1.70;;
286;SDS011;127;48.770;9.212;2024-03-02T15:38:08;3.47;;;2.40;;
286;SDS011;127;48.770;9.212;2024-03-02T15:40:40;7.87;;;1.70;;
286;SDS011;127;48.770;9.212;2024-03-02T15:43:12;2.40;;;1.80;;
286;SDS011;127;48.770;9.212;2024-03-02T15:45:41;4.37;;;2.67;;